sensor_id;sensor_type;location;lat;lon;timestamp;P1;durP1;ratioP1;P2;durP2;ratioP2
45564;SDS011;31280;40.408;17.282;2023-01-29T00:01:04;6.32;;;3.08;;
45564;SDS011;31280;40.408;17.282;2023-01-29T00:03:31;4.97;;;3.30;;
45564;SDS011;31280;40.408;17.282;2023-01-29T00:05:57;6.45;;;3.75;;
45564;SDS011;31280;40.408;17.282;2023-01-29T00:08:24;6.13;;;3.28;;
45564;SDS011;31280;40.408;17.282;2023-01-29T00:10:50;7.03;;;2.95;;
45564;SDS011;31280;40.408;17.282;2023-01-29T00:13:16;4.95;;;3.08;;
45564;SDS011;31280;40.408;17.282;2023-01-29T00:15:51;3.75;;;2.88;;
45564;SDS011;31280;40.408;17.282;2023-01-29T00:18:17;9.02;;;3.55;;
45564;SDS011;31280;40.408;17.282;2023-01-29T00:20:43;5.63;;;3.15;;
45564;SDS011;31280;40.408;17.282;2023-01-29T00:23:08;7.03;;;2.92;;
45564;SDS011;31280;40.408;17.282;2023-01-29T00:25:34;5.13;;;2.88;;
45564;SDS011;31280;40.408;17.282;2023-01-29T00:27:59;5.95;;;2.90;;
45564;SDS011;31280;40.408;17.282;2023-01-29T00:30:25;5.43;;;3.03;;
45564;SDS011;31280;40.408;17.282;2023-01-29T00:32:51;6.60;;;3.05;;
45564;SDS011;31280;40.408;17.282;2023-01-29T00:35:18;6.25;;;3.17;;
45564;SDS011;31280;40.408;17.282;2023-01-29T00:37:43;4.13;;;2.97;;
45564;SDS011;31280;40.408;17.282;2023-01-29T00:40:09;6.45;;;2.88;;
45564;SDS011;31280;40.408;17.282;2023-01-29T00:42:35;6.50;;;3.30;;
45564;SDS011;31280;40.408;17.282;2023-01-29T00:45:20;5.60;;;2.88;;
45564;SDS011;31280;40.408;17.282;2023-01-29T00:47:45;4.40;;;3.13;;
45564;SDS011;31280;40.408;17.282;2023-01-29T00:50:11;5.10;;;3.35;;
45564;SDS011;31280;40.408;17.282;2023-01-29T00:52:37;4.28;;;2.80;;
45564;SDS011;31280;40.408;17.282;2023-01-29T00:55:05;5.88;;;3.25;;
45564;SDS011;31280;40.408;17.282;2023-01-29T00:57:33;4.22;;;2.92;;
45564;SDS011;31280;40.408;17.282;2023-01-29T01:00:00;6.47;;;3.60;;
45564;SDS011;31280;40.408;17.282;2023-01-29T01:02:27;4.32;;;2.90;;
45564;SDS011;31280;40.408;17.282;2023-01-29T01:05:12;4.53;;;2.80;;
45564;SDS011;31280;40.408;17.282;2023-01-29T01:07:43;6.05;;;2.88;;
45564;SDS011;31280;40.408;17.282;2023-01-29T01:10:13;4.38;;;3.00;;
45564;SDS011;31280;40.408;17.282;2023-01-29T01:15:21;5.50;;;3.00;;
45564;SDS011;31280;40.408;17.282;2023-01-29T01:17:50;5.22;;;3.22;;
45564;SDS011;31280;40.408;17.282;2023-01-29T01:20:21;3.35;;;2.40;;
45564;SDS011;31280;40.408;17.282;2023-01-29T01:22:47;7.03;;;2.70;;
45564;SDS011;31280;40.408;17.282;2023-01-29T01:25:13;4.60;;;2.88;;
45564;SDS011;31280;40.408;17.282;2023-01-29T01:27:39;5.90;;;2.88;;
45564;SDS011;31280;40.408;17.282;2023-01-29T01:30:07;7.20;;;3.65;;
45564;SDS011;31280;40.408;17.282;2023-01-29T01:32:35;6.75;;;3.10;;
45564;SDS011;31280;40.408;17.282;2023-01-29T01:35:00;8.13;;;3.47;;
45564;SDS011;31280;40.408;17.282;2023-01-29T01:37:26;4.78;;;3.30;;
45564;SDS011;31280;40.408;17.282;2023-01-29T01:39:52;6.10;;;3.58;;
45564;SDS011;31280;40.408;17.282;2023-01-29T01:42:22;5.00;;;3.60;;
45564;SDS011;31280;40.408;17.282;2023-01-29T01:45:00;8.25;;;3.42;;
45564;SDS011;31280;40.408;17.282;2023-01-29T01:47:46;5.13;;;3.25;;
45564;SDS011;31280;40.408;17.282;2023-01-29T01:50:49;6.45;;;3.22;;
45564;SDS011;31280;40.408;17.282;2023-01-29T01:55:51;7.68;;;3.05;;
45564;SDS011;31280;40.408;17.282;2023-01-29T01:58:25;7.50;;;3.20;;
45564;SDS011;31280;40.408;17.282;2023-01-29T02:00:55;4.97;;;3.10;;
45564;SDS011;31280;40.408;17.282;2023-01-29T02:03:21;5.63;;;2.95;;
45564;SDS011;31280;40.408;17.282;2023-01-29T02:06:06;4.40;;;2.72;;
45564;SDS011;31280;40.408;17.282;2023-01-29T02:11:39;5.05;;;2.90;;
45564;SDS011;31280;40.408;17.282;2023-01-29T02:14:05;4.57;;;2.63;;
45564;SDS011;31280;40.408;17.282;2023-01-29T02:16:32;8.60;;;2.78;;
45564;SDS011;31280;40.408;17.282;2023-01-29T02:18:59;6.15;;;2.58;;
45564;SDS011;31280;40.408;17.282;2023-01-29T02:29:10;6.90;;;2.85;;
45564;SDS011;31280;40.408;17.282;2023-01-29T02:31:56;5.57;;;3.03;;
45564;SDS011;31280;40.408;17.282;2023-01-29T02:34:29;4.72;;;3.13;;
45564;SDS011;31280;40.408;17.282;2023-01-29T02:37:17;4.40;;;2.40;;
45564;SDS011;31280;40.408;17.282;2023-01-29T02:39:52;6.88;;;2.42;;
45564;SDS011;31280;40.408;17.282;2023-01-29T02:42:33;3.33;;;2.10;;
45564;SDS011;31280;40.408;17.282;2023-01-29T02:52:43;4.22;;;2.20;;
45564;SDS011;31280;40.408;17.282;2023-01-29T02:55:33;3.30;;;1.80;;
45564;SDS011;31280;40.408;17.282;2023-01-29T02:58:10;4.10;;;2.47;;
45564;SDS011;31280;40.408;17.282;2023-01-29T03:00:42;4.28;;;2.03;;
45564;SDS011;31280;40.408;17.282;2023-01-29T03:03:16;4.22;;;2.13;;
45564;SDS011;31280;40.408;17.282;2023-01-29T03:08:15;6.32;;;2.30;;
45564;SDS011;31280;40.408;17.282;2023-01-29T03:10:55;4.10;;;2.22;;
45564;SDS011;31280;40.408;17.282;2023-01-29T03:16:04;3.40;;;2.30;;
45564;SDS011;31280;40.408;17.282;2023-01-29T03:18:36;2.83;;;1.98;;
45564;SDS011;31280;40.408;17.282;2023-01-29T03:21:16;4.07;;;2.10;;
45564;SDS011;31280;40.408;17.282;2023-01-29T03:24:04;3.40;;;2.10;;
45564;SDS011;31280;40.408;17.282;2023-01-29T03:26:51;4.30;;;2.30;;
45564;SDS011;31280;40.408;17.282;2023-01-29T03:29:37;3.88;;;2.10;;
45564;SDS011;31280;40.408;17.282;2023-01-29T03:32:22;3.80;;;2.00;;
45564;SDS011;31280;40.408;17.282;2023-01-29T03:34:52;3.35;;;2.10;;
45564;SDS011;31280;40.408;17.282;2023-01-29T03:37:40;3.25;;;2.00;;
45564;SDS011;31280;40.408;17.282;2023-01-29T03:40:10;4.13;;;2.05;;
45564;SDS011;31280;40.408;17.282;2023-01-29T03:45:30;4.32;;;2.00;;
45564;SDS011;31280;40.408;17.282;2023-01-29T03:48:21;4.22;;;2.17;;
45564;SDS011;31280;40.408;17.282;2023-01-29T03:53:51;5.32;;;2.70;;
45564;SDS011;31280;40.408;17.282;2023-01-29T04:01:51;4.18;;;2.50;;
45564;SDS011;31280;40.408;17.282;2023-01-29T04:04:20;3.10;;;1.90;;
45564;SDS011;31280;40.408;17.282;2023-01-29T04:06:59;6.65;;;2.38;;
45564;SDS011;31280;40.408;17.282;2023-01-29T04:09:48;4.47;;;2.08;;
45564;SDS011;31280;40.408;17.282;2023-01-29T04:12:19;4.78;;;2.58;;
45564;SDS011;31280;40.408;17.282;2023-01-29T04:14:50;4.75;;;2.38;;
45564;SDS011;31280;40.408;17.282;2023-01-29T04:17:19;4.85;;;2.58;;
45564;SDS011;31280;40.408;17.282;2023-01-29T04:19:48;4.03;;;2.45;;
45564;SDS011;31280;40.408;17.282;2023-01-29T04:22:24;4.53;;;2.58;;
45564;SDS011;31280;40.408;17.282;2023-01-29T04:24:56;3.67;;;2.38;;
45564;SDS011;31280;40.408;17.282;2023-01-29T04:27:36;4.28;;;2.40;;
45564;SDS011;31280;40.408;17.282;2023-01-29T04:33:12;4.90;;;2.45;;
45564;SDS011;31280;40.408;17.282;2023-01-29T04:43:40;3.53;;;2.38;;
45564;SDS011;31280;40.408;17.282;2023-01-29T04:48:58;4.15;;;2.30;;
45564;SDS011;31280;40.408;17.282;2023-01-29T04:51:42;5.72;;;2.30;;
45564;SDS011;31280;40.408;17.282;2023-01-29T04:54:33;2.75;;;2.05;;
45564;SDS011;31280;40.408;17.282;2023-01-29T05:03:00;3.38;;;2.20;;
45564;SDS011;31280;40.408;17.282;2023-01-29T05:05:27;5.30;;;2.42;;
45564;SDS011;31280;40.408;17.282;2023-01-29T05:07:54;3.65;;;2.42;;
45564;SDS011;31280;40.408;17.282;2023-01-29T05:10:21;4.63;;;2.40;;
45564;SDS011;31280;40.408;17.282;2023-01-29T05:12:53;4.38;;;2.83;;
45564;SDS011;31280;40.408;17.282;2023-01-29T05:15:25;3.63;;;2.53;;
45564;SDS011;31280;40.408;17.282;2023-01-29T05:18:02;7.05;;;2.83;;
45564;SDS011;31280;40.408;17.282;2023-01-29T05:20:32;5.93;;;3.20;;
45564;SDS011;31280;40.408;17.282;2023-01-29T05:23:00;3.83;;;2.55;;
45564;SDS011;31280;40.408;17.282;2023-01-29T05:25:27;4.93;;;3.17;;
45564;SDS011;31280;40.408;17.282;2023-01-29T05:27:54;5.38;;;2.85;;
45564;SDS011;31280;40.408;17.282;2023-01-29T05:30:36;4.28;;;2.75;;
45564;SDS011;31280;40.408;17.282;2023-01-29T05:33:02;6.70;;;3.05;;
45564;SDS011;31280;40.408;17.282;2023-01-29T05:35:29;3.75;;;2.65;;
45564;SDS011;31280;40.408;17.282;2023-01-29T05:37:56;5.25;;;3.10;;
45564;SDS011;31280;40.408;17.282;2023-01-29T05:40:23;6.32;;;3.28;;
45564;SDS011;31280;40.408;17.282;2023-01-29T05:42:49;9.43;;;2.70;;
45564;SDS011;31280;40.408;17.282;2023-01-29T05:45:15;8.45;;;2.92;;
45564;SDS011;31280;40.408;17.282;2023-01-29T05:47:43;4.55;;;2.45;;
45564;SDS011;31280;40.408;17.282;2023-01-29T05:50:09;6.43;;;2.90;;
45564;SDS011;31280;40.408;17.282;2023-01-29T05:52:35;4.40;;;2.65;;
45564;SDS011;31280;40.408;17.282;2023-01-29T05:55:01;4.97;;;2.95;;
45564;SDS011;31280;40.408;17.282;2023-01-29T05:57:27;6.50;;;2.90;;
45564;SDS011;31280;40.408;17.282;2023-01-29T05:59:53;4.88;;;2.60;;
45564;SDS011;31280;40.408;17.282;2023-01-29T06:02:18;5.90;;;2.80;;
45564;SDS011;31280;40.408;17.282;2023-01-29T06:04:45;5.72;;;3.30;;
45564;SDS011;31280;40.408;17.282;2023-01-29T06:07:10;4.50;;;2.95;;
45564;SDS011;31280;40.408;17.282;2023-01-29T06:09:36;5.55;;;2.50;;
45564;SDS011;31280;40.408;17.282;2023-01-29T06:12:02;4.40;;;3.45;;
45564;SDS011;31280;40.408;17.282;2023-01-29T06:14:30;9.18;;;3.97;;
45564;SDS011;31280;40.408;17.282;2023-01-29T06:16:56;4.53;;;2.90;;
45564;SDS011;31280;40.408;17.282;2023-01-29T06:19:22;9.95;;;4.78;;
45564;SDS011;31280;40.408;17.282;2023-01-29T06:21:48;6.03;;;2.90;;
45564;SDS011;31280;40.408;17.282;2023-01-29T06:24:13;8.55;;;3.35;;
45564;SDS011;31280;40.408;17.282;2023-01-29T06:26:39;5.65;;;2.92;;
45564;SDS011;31280;40.408;17.282;2023-01-29T06:29:05;5.75;;;3.17;;
45564;SDS011;31280;40.408;17.282;2023-01-29T06:31:30;4.18;;;2.80;;
45564;SDS011;31280;40.408;17.282;2023-01-29T06:33:56;5.50;;;3.22;;
45564;SDS011;31280;40.408;17.282;2023-01-29T06:36:22;4.68;;;3.15;;
45564;SDS011;31280;40.408;17.282;2023-01-29T06:38:48;6.35;;;3.70;;
45564;SDS011;31280;40.408;17.282;2023-01-29T06:41:15;6.13;;;3.60;;
45564;SDS011;31280;40.408;17.282;2023-01-29T06:43:45;7.03;;;3.50;;
45564;SDS011;31280;40.408;17.282;2023-01-29T06:46:12;6.80;;;3.40;;
45564;SDS011;31280;40.408;17.282;2023-01-29T06:48:38;5.93;;;3.53;;
45564;SDS011;31280;40.408;17.282;2023-01-29T06:51:05;5.45;;;2.95;;
45564;SDS011;31280;40.408;17.282;2023-01-29T06:53:32;11.38;;;5.20;;
45564;SDS011;31280;40.408;17.282;2023-01-29T06:55:58;6.28;;;3.38;;
45564;SDS011;31280;40.408;17.282;2023-01-29T06:58:24;5.55;;;3.30;;
45564;SDS011;31280;40.408;17.282;2023-01-29T07:00:50;7.72;;;3.22;;
45564;SDS011;31280;40.408;17.282;2023-01-29T07:03:17;5.65;;;3.33;;
45564;SDS011;31280;40.408;17.282;2023-01-29T07:05:48;5.22;;;3.33;;
45564;SDS011;31280;40.408;17.282;2023-01-29T07:08:15;6.13;;;4.00;;
45564;SDS011;31280;40.408;17.282;2023-01-29T07:10:40;6.72;;;3.70;;
45564;SDS011;31280;40.408;17.282;2023-01-29T07:13:06;8.32;;;3.33;;
45564;SDS011;31280;40.408;17.282;2023-01-29T07:15:32;5.05;;;3.33;;
45564;SDS011;31280;40.408;17.282;2023-01-29T07:18:00;7.97;;;3.88;;
45564;SDS011;31280;40.408;17.282;2023-01-29T07:20:28;9.18;;;3.90;;
45564;SDS011;31280;40.408;17.282;2023-01-29T07:22:57;7.65;;;3.80;;
45564;SDS011;31280;40.408;17.282;2023-01-29T07:25:23;7.90;;;3.90;;
45564;SDS011;31280;40.408;17.282;2023-01-29T07:27:49;8.60;;;4.13;;
45564;SDS011;31280;40.408;17.282;2023-01-29T07:30:16;9.23;;;4.20;;
45564;SDS011;31280;40.408;17.282;2023-01-29T07:32:42;8.85;;;3.90;;
45564;SDS011;31280;40.408;17.282;2023-01-29T07:35:08;8.93;;;4.35;;
45564;SDS011;31280;40.408;17.282;2023-01-29T07:37:34;5.63;;;3.97;;
45564;SDS011;31280;40.408;17.282;2023-01-29T07:40:00;11.20;;;4.55;;
45564;SDS011;31280;40.408;17.282;2023-01-29T07:42:25;8.55;;;4.10;;
45564;SDS011;31280;40.408;17.282;2023-01-29T07:44:51;7.38;;;3.90;;
45564;SDS011;31280;40.408;17.282;2023-01-29T07:47:16;7.78;;;4.75;;
45564;SDS011;31280;40.408;17.282;2023-01-29T07:49:42;6.55;;;3.70;;
45564;SDS011;31280;40.408;17.282;2023-01-29T07:52:08;7.22;;;4.40;;
45564;SDS011;31280;40.408;17.282;2023-01-29T07:54:34;10.52;;;4.45;;
45564;SDS011;31280;40.408;17.282;2023-01-29T07:56:59;10.52;;;4.35;;
45564;SDS011;31280;40.408;17.282;2023-01-29T07:59:25;6.30;;;4.18;;
45564;SDS011;31280;40.408;17.282;2023-01-29T08:01:50;8.98;;;4.30;;
45564;SDS011;31280;40.408;17.282;2023-01-29T08:04:16;6.40;;;4.47;;
45564;SDS011;31280;40.408;17.282;2023-01-29T08:06:42;9.18;;;4.95;;
45564;SDS011;31280;40.408;17.282;2023-01-29T08:09:07;9.35;;;5.18;;
45564;SDS011;31280;40.408;17.282;2023-01-29T08:11:34;8.63;;;4.65;;
45564;SDS011;31280;40.408;17.282;2023-01-29T08:14:00;14.93;;;5.07;;
45564;SDS011;31280;40.408;17.282;2023-01-29T08:16:25;6.65;;;4.30;;
45564;SDS011;31280;40.408;17.282;2023-01-29T08:18:51;10.60;;;4.60;;
45564;SDS011;31280;40.408;17.282;2023-01-29T08:21:17;8.73;;;4.28;;
45564;SDS011;31280;40.408;17.282;2023-01-29T08:23:43;6.28;;;4.15;;
45564;SDS011;31280;40.408;17.282;2023-01-29T08:26:08;7.97;;;4.20;;
45564;SDS011;31280;40.408;17.282;2023-01-29T08:28:34;6.68;;;4.07;;
45564;SDS011;31280;40.408;17.282;2023-01-29T08:31:00;9.32;;;4.15;;
45564;SDS011;31280;40.408;17.282;2023-01-29T08:33:26;6.50;;;3.78;;
45564;SDS011;31280;40.408;17.282;2023-01-29T08:35:53;6.53;;;4.18;;
45564;SDS011;31280;40.408;17.282;2023-01-29T08:38:19;6.40;;;3.80;;
45564;SDS011;31280;40.408;17.282;2023-01-29T08:40:45;10.27;;;4.03;;
45564;SDS011;31280;40.408;17.282;2023-01-29T08:43:11;8.20;;;4.20;;
45564;SDS011;31280;40.408;17.282;2023-01-29T08:45:41;7.30;;;4.43;;
45564;SDS011;31280;40.408;17.282;2023-01-29T08:48:08;7.43;;;4.15;;
45564;SDS011;31280;40.408;17.282;2023-01-29T08:50:34;9.60;;;4.13;;
45564;SDS011;31280;40.408;17.282;2023-01-29T08:53:01;8.02;;;4.18;;
45564;SDS011;31280;40.408;17.282;2023-01-29T08:55:29;7.35;;;4.00;;
45564;SDS011;31280;40.408;17.282;2023-01-29T08:57:55;6.75;;;3.97;;
45564;SDS011;31280;40.408;17.282;2023-01-29T09:00:23;6.88;;;4.20;;
45564;SDS011;31280;40.408;17.282;2023-01-29T09:02:49;5.38;;;3.67;;
45564;SDS011;31280;40.408;17.282;2023-01-29T09:05:15;9.20;;;4.10;;
45564;SDS011;31280;40.408;17.282;2023-01-29T09:07:40;6.07;;;4.03;;
45564;SDS011;31280;40.408;17.282;2023-01-29T09:10:06;7.50;;;4.10;;
45564;SDS011;31280;40.408;17.282;2023-01-29T09:12:32;8.30;;;4.13;;
45564;SDS011;31280;40.408;17.282;2023-01-29T09:14:58;7.47;;;4.07;;
45564;SDS011;31280;40.408;17.282;2023-01-29T09:17:24;10.40;;;4.45;;
45564;SDS011;31280;40.408;17.282;2023-01-29T09:19:49;5.32;;;3.72;;
45564;SDS011;31280;40.408;17.282;2023-01-29T09:22:17;5.38;;;3.30;;
45564;SDS011;31280;40.408;17.282;2023-01-29T09:24:43;7.90;;;3.90;;
45564;SDS011;31280;40.408;17.282;2023-01-29T09:27:09;6.35;;;4.13;;
45564;SDS011;31280;40.408;17.282;2023-01-29T09:29:35;6.72;;;3.33;;
45564;SDS011;31280;40.408;17.282;2023-01-29T09:32:02;8.98;;;3.92;;
45564;SDS011;31280;40.408;17.282;2023-01-29T09:34:28;6.35;;;3.78;;
45564;SDS011;31280;40.408;17.282;2023-01-29T09:36:54;5.00;;;3.55;;
45564;SDS011;31280;40.408;17.282;2023-01-29T09:39:20;6.72;;;4.25;;
45564;SDS011;31280;40.408;17.282;2023-01-29T09:44:18;5.90;;;3.88;;
45564;SDS011;31280;40.408;17.282;2023-01-29T09:46:47;8.20;;;3.60;;
45564;SDS011;31280;40.408;17.282;2023-01-29T09:49:30;7.30;;;4.15;;
45564;SDS011;31280;40.408;17.282;2023-01-29T09:52:04;6.63;;;3.65;;
45564;SDS011;31280;40.408;17.282;2023-01-29T09:54:41;5.93;;;3.80;;
45564;SDS011;31280;40.408;17.282;2023-01-29T09:57:09;4.82;;;3.40;;
45564;SDS011;31280;40.408;17.282;2023-01-29T09:59:43;7.13;;;4.00;;
45564;SDS011;31280;40.408;17.282;2023-01-29T10:02:12;6.25;;;3.67;;
45564;SDS011;31280;40.408;17.282;2023-01-29T10:05:38;4.25;;;3.28;;
45564;SDS011;31280;40.408;17.282;2023-01-29T10:10:47;5.53;;;3.30;;
45564;SDS011;31280;40.408;17.282;2023-01-29T10:15:55;9.95;;;3.15;;
45564;SDS011;31280;40.408;17.282;2023-01-29T10:24:30;7.18;;;3.95;;
45564;SDS011;31280;40.408;17.282;2023-01-29T10:26:54;11.73;;;3.97;;
45564;SDS011;31280;40.408;17.282;2023-01-29T10:29:21;6.53;;;4.30;;
45564;SDS011;31280;40.408;17.282;2023-01-29T10:31:57;8.75;;;4.65;;
45564;SDS011;31280;40.408;17.282;2023-01-29T10:34:30;9.93;;;4.93;;
45564;SDS011;31280;40.408;17.282;2023-01-29T10:37:00;8.77;;;4.18;;
45564;SDS011;31280;40.408;17.282;2023-01-29T10:39:31;6.57;;;4.00;;
45564;SDS011;31280;40.408;17.282;2023-01-29T10:52:51;9.05;;;3.95;;
45564;SDS011;31280;40.408;17.282;2023-01-29T11:00:50;6.35;;;3.85;;
45564;SDS011;31280;40.408;17.282;2023-01-29T11:03:27;10.77;;;4.55;;
45564;SDS011;31280;40.408;17.282;2023-01-29T11:08:33;8.82;;;4.35;;
45564;SDS011;31280;40.408;17.282;2023-01-29T11:11:08;9.45;;;4.22;;
45564;SDS011;31280;40.408;17.282;2023-01-29T11:14:01;6.85;;;4.22;;
45564;SDS011;31280;40.408;17.282;2023-01-29T11:16:38;7.30;;;4.45;;
45564;SDS011;31280;40.408;17.282;2023-01-29T11:19:06;7.40;;;4.18;;
45564;SDS011;31280;40.408;17.282;2023-01-29T11:21:33;15.52;;;4.57;;
45564;SDS011;31280;40.408;17.282;2023-01-29T11:24:23;6.35;;;3.90;;
45564;SDS011;31280;40.408;17.282;2023-01-29T11:26:50;8.30;;;4.00;;
45564;SDS011;31280;40.408;17.282;2023-01-29T11:32:13;10.93;;;4.13;;
45564;SDS011;31280;40.408;17.282;2023-01-29T11:37:31;9.57;;;4.78;;
45564;SDS011;31280;40.408;17.282;2023-01-29T11:40:05;13.40;;;5.25;;
45564;SDS011;31280;40.408;17.282;2023-01-29T11:45:42;7.50;;;4.30;;
45564;SDS011;31280;40.408;17.282;2023-01-29T11:48:15;9.32;;;4.30;;
45564;SDS011;31280;40.408;17.282;2023-01-29T11:50:49;6.60;;;4.15;;
45564;SDS011;31280;40.408;17.282;2023-01-29T11:53:38;8.57;;;4.40;;
45564;SDS011;31280;40.408;17.282;2023-01-29T11:56:26;6.57;;;4.15;;
45564;SDS011;31280;40.408;17.282;2023-01-29T11:58:56;7.07;;;3.85;;
45564;SDS011;31280;40.408;17.282;2023-01-29T12:01:33;13.90;;;4.00;;
45564;SDS011;31280;40.408;17.282;2023-01-29T12:04:02;9.00;;;3.88;;
45564;SDS011;31280;40.408;17.282;2023-01-29T12:06:35;9.27;;;5.15;;
45564;SDS011;31280;40.408;17.282;2023-01-29T12:09:14;7.55;;;4.00;;
45564;SDS011;31280;40.408;17.282;2023-01-29T12:11:43;10.82;;;4.72;;
45564;SDS011;31280;40.408;17.282;2023-01-29T12:14:31;8.82;;;5.00;;
45564;SDS011;31280;40.408;17.282;2023-01-29T12:17:10;7.55;;;4.45;;
45564;SDS011;31280;40.408;17.282;2023-01-29T12:19:46;9.40;;;4.25;;
45564;SDS011;31280;40.408;17.282;2023-01-29T12:25:34;11.15;;;4.40;;
45564;SDS011;31280;40.408;17.282;2023-01-29T12:31:17;6.75;;;4.07;;
45564;SDS011;31280;40.408;17.282;2023-01-29T12:34:05;5.80;;;3.67;;
45564;SDS011;31280;40.408;17.282;2023-01-29T12:39:33;8.15;;;3.55;;
45564;SDS011;31280;40.408;17.282;2023-01-29T12:44:34;8.90;;;3.80;;
45564;SDS011;31280;40.408;17.282;2023-01-29T12:47:07;6.68;;;3.47;;
45564;SDS011;31280;40.408;17.282;2023-01-29T12:49:39;7.67;;;3.80;;
45564;SDS011;31280;40.408;17.282;2023-01-29T12:55:19;6.90;;;3.50;;
45564;SDS011;31280;40.408;17.282;2023-01-29T12:57:55;6.45;;;3.20;;
45564;SDS011;31280;40.408;17.282;2023-01-29T13:00:27;5.68;;;3.97;;
45564;SDS011;31280;40.408;17.282;2023-01-29T13:05:40;8.73;;;3.85;;
45564;SDS011;31280;40.408;17.282;2023-01-29T13:08:09;7.70;;;3.78;;
45564;SDS011;31280;40.408;17.282;2023-01-29T13:10:42;9.45;;;4.07;;
45564;SDS011;31280;40.408;17.282;2023-01-29T13:13:14;8.32;;;3.72;;
45564;SDS011;31280;40.408;17.282;2023-01-29T13:15:45;8.70;;;3.67;;
45564;SDS011;31280;40.408;17.282;2023-01-29T13:23:24;4.70;;;3.25;;
45564;SDS011;31280;40.408;17.282;2023-01-29T13:25:56;4.82;;;3.17;;
45564;SDS011;31280;40.408;17.282;2023-01-29T13:28:24;6.38;;;3.88;;
45564;SDS011;31280;40.408;17.282;2023-01-29T13:33:41;14.88;;;3.97;;
45564;SDS011;31280;40.408;17.282;2023-01-29T13:36:15;7.07;;;3.70;;
45564;SDS011;31280;40.408;17.282;2023-01-29T13:38:44;7.47;;;4.18;;
45564;SDS011;31280;40.408;17.282;2023-01-29T13:41:09;4.32;;;3.30;;
45564;SDS011;31280;40.408;17.282;2023-01-29T13:43:36;5.10;;;3.25;;
45564;SDS011;31280;40.408;17.282;2023-01-29T13:46:12;8.80;;;3.67;;
45564;SDS011;31280;40.408;17.282;2023-01-29T13:48:42;7.10;;;3.17;;
45564;SDS011;31280;40.408;17.282;2023-01-29T13:51:14;5.00;;;3.00;;
45564;SDS011;31280;40.408;17.282;2023-01-29T13:57:00;6.38;;;2.80;;
45564;SDS011;31280;40.408;17.282;2023-01-29T14:02:23;5.80;;;2.80;;
45564;SDS011;31280;40.408;17.282;2023-01-29T14:04:50;5.38;;;3.58;;
45564;SDS011;31280;40.408;17.282;2023-01-29T14:12:42;4.00;;;2.63;;
45564;SDS011;31280;40.408;17.282;2023-01-29T14:17:52;4.03;;;2.75;;
45564;SDS011;31280;40.408;17.282;2023-01-29T14:20:39;13.77;;;4.40;;
45564;SDS011;31280;40.408;17.282;2023-01-29T14:28:55;4.30;;;2.38;;
45564;SDS011;31280;40.408;17.282;2023-01-29T14:31:43;4.65;;;2.70;;
45564;SDS011;31280;40.408;17.282;2023-01-29T14:36:46;3.92;;;2.53;;
45564;SDS011;31280;40.408;17.282;2023-01-29T14:39:40;4.15;;;2.95;;
45564;SDS011;31280;40.408;17.282;2023-01-29T14:42:22;4.97;;;3.38;;
45564;SDS011;31280;40.408;17.282;2023-01-29T14:47:19;6.88;;;3.50;;
45564;SDS011;31280;40.408;17.282;2023-01-29T14:52:25;4.25;;;2.92;;
45564;SDS011;31280;40.408;17.282;2023-01-29T14:54:56;3.88;;;2.72;;
45564;SDS011;31280;40.408;17.282;2023-01-29T14:57:25;5.85;;;2.65;;
45564;SDS011;31280;40.408;17.282;2023-01-29T14:59:54;5.68;;;2.70;;
45564;SDS011;31280;40.408;17.282;2023-01-29T15:02:31;5.88;;;3.42;;
45564;SDS011;31280;40.408;17.282;2023-01-29T15:05:03;5.88;;;2.95;;
45564;SDS011;31280;40.408;17.282;2023-01-29T15:10:43;9.20;;;3.38;;
45564;SDS011;31280;40.408;17.282;2023-01-29T15:13:23;7.10;;;3.10;;
45564;SDS011;31280;40.408;17.282;2023-01-29T15:18:49;7.03;;;3.92;;
45564;SDS011;31280;40.408;17.282;2023-01-29T15:21:20;7.32;;;3.80;;
45564;SDS011;31280;40.408;17.282;2023-01-29T15:23:46;8.15;;;3.67;;
45564;SDS011;31280;40.408;17.282;2023-01-29T15:26:17;8.88;;;3.63;;
45564;SDS011;31280;40.408;17.282;2023-01-29T15:28:43;4.32;;;2.80;;
45564;SDS011;31280;40.408;17.282;2023-01-29T15:31:12;4.63;;;2.90;;
45564;SDS011;31280;40.408;17.282;2023-01-29T15:33:43;4.67;;;2.37;;
45564;SDS011;31280;40.408;17.282;2023-01-29T15:36:23;6.30;;;2.58;;
45564;SDS011;31280;40.408;17.282;2023-01-29T15:44:01;4.13;;;2.60;;
45564;SDS011;31280;40.408;17.282;2023-01-29T15:48:59;4.60;;;3.40;;
45564;SDS011;31280;40.408;17.282;2023-01-29T15:51:30;6.72;;;3.03;;
45564;SDS011;31280;40.408;17.282;2023-01-29T15:53:57;4.07;;;2.20;;
45564;SDS011;31280;40.408;17.282;2023-01-29T15:56:27;4.65;;;2.60;;
45564;SDS011;31280;40.408;17.282;2023-01-29T15:58:57;5.40;;;3.10;;
45564;SDS011;31280;40.408;17.282;2023-01-29T16:01:27;5.60;;;3.55;;
45564;SDS011;31280;40.408;17.282;2023-01-29T16:03:53;7.32;;;4.75;;
45564;SDS011;31280;40.408;17.282;2023-01-29T16:06:21;5.43;;;3.97;;
45564;SDS011;31280;40.408;17.282;2023-01-29T16:08:50;3.95;;;3.05;;
45564;SDS011;31280;40.408;17.282;2023-01-29T16:11:20;5.25;;;2.95;;
45564;SDS011;31280;40.408;17.282;2023-01-29T16:13:47;5.05;;;2.67;;
45564;SDS011;31280;40.408;17.282;2023-01-29T16:18:40;4.10;;;2.72;;
45564;SDS011;31280;40.408;17.282;2023-01-29T16:23:56;5.80;;;2.90;;
45564;SDS011;31280;40.408;17.282;2023-01-29T16:26:27;5.65;;;3.00;;
45564;SDS011;31280;40.408;17.282;2023-01-29T16:28:57;9.02;;;3.50;;
45564;SDS011;31280;40.408;17.282;2023-01-29T16:31:32;6.05;;;3.65;;
45564;SDS011;31280;40.408;17.282;2023-01-29T16:34:04;8.07;;;4.30;;
45564;SDS011;31280;40.408;17.282;2023-01-29T16:36:31;5.95;;;3.58;;
45564;SDS011;31280;40.408;17.282;2023-01-29T16:38:59;4.15;;;3.45;;
45564;SDS011;31280;40.408;17.282;2023-01-29T16:44:02;5.78;;;3.70;;
45564;SDS011;31280;40.408;17.282;2023-01-29T16:46:54;5.93;;;3.75;;
45564;SDS011;31280;40.408;17.282;2023-01-29T16:51:51;5.15;;;3.53;;
45564;SDS011;31280;40.408;17.282;2023-01-29T16:54:19;5.32;;;3.15;;
45564;SDS011;31280;40.408;17.282;2023-01-29T16:56:49;9.27;;;5.10;;
45564;SDS011;31280;40.408;17.282;2023-01-29T16:59:22;15.20;;;5.00;;
45564;SDS011;31280;40.408;17.282;2023-01-29T17:01:56;10.10;;;4.82;;
45564;SDS011;31280;40.408;17.282;2023-01-29T17:04:21;9.57;;;4.90;;
45564;SDS011;31280;40.408;17.282;2023-01-29T17:06:48;6.15;;;4.20;;
45564;SDS011;31280;40.408;17.282;2023-01-29T17:09:20;8.63;;;3.88;;
45564;SDS011;31280;40.408;17.282;2023-01-29T17:11:54;10.32;;;4.07;;
45564;SDS011;31280;40.408;17.282;2023-01-29T17:14:25;6.80;;;3.67;;
45564;SDS011;31280;40.408;17.282;2023-01-29T17:17:06;9.05;;;3.70;;
45564;SDS011;31280;40.408;17.282;2023-01-29T17:19:38;6.63;;;4.30;;
45564;SDS011;31280;40.408;17.282;2023-01-29T17:22:04;6.70;;;4.05;;
45564;SDS011;31280;40.408;17.282;2023-01-29T17:24:32;8.48;;;4.63;;
45564;SDS011;31280;40.408;17.282;2023-01-29T17:26:59;9.05;;;4.25;;
45564;SDS011;31280;40.408;17.282;2023-01-29T17:29:27;6.13;;;4.18;;
45564;SDS011;31280;40.408;17.282;2023-01-29T17:31:54;8.38;;;4.70;;
45564;SDS011;31280;40.408;17.282;2023-01-29T17:34:20;8.68;;;4.32;;
45564;SDS011;31280;40.408;17.282;2023-01-29T17:36:46;8.07;;;4.07;;
45564;SDS011;31280;40.408;17.282;2023-01-29T17:39:16;6.80;;;3.78;;
45564;SDS011;31280;40.408;17.282;2023-01-29T17:41:48;6.85;;;3.90;;
45564;SDS011;31280;40.408;17.282;2023-01-29T17:44:15;5.25;;;3.42;;
45564;SDS011;31280;40.408;17.282;2023-01-29T17:46:42;9.00;;;3.88;;
45564;SDS011;31280;40.408;17.282;2023-01-29T17:49:11;5.35;;;3.63;;
45564;SDS011;31280;40.408;17.282;2023-01-29T17:51:41;6.70;;;4.00;;